Time;durP1;ratioP1;P1;durP2;ratioP2;P2;SDS_P1;SDS_P2;PMS_P1;PMS_P2;Temp;Humidity;BMP_temperature;BMP_pressure;BME280_temperature;BME280_humidity;BME280_pressure;Samples;Min_cycle;Max_cycle;Signal;HPM_P1;HPM_P2
2023/01/13 00:02:01;;;;;;;1.50;1.03;;;11.00;99.90;;;;;;4965936;28;20178;-92
2023/01/13 00:04:57;;;;;;;1.43;1.00;;;11.00;99.90;;;;;;4983923;28;20452;-92
2023/01/13 00:07:23;;;;;;;1.73;1.10;;;11.00;99.90;;;;;;4984878;28;20467;-90
2023/01/13 00:09:49;;;;;;;1.57;0.80;;;11.00;99.90;;;;;;4997415;28;20541;-91
2023/01/13 00:12:15;;;;;;;2.00;1.00;;;11.00;99.90;;;;;;4966631;28;20430;-88
2023/01/13 00:14:40;;;;;;;1.27;1.00;;;11.00;99.90;;;;;;4981065;28;20445;-87
2023/01/13 00:17:06;;;;;;;1.90;0.90;;;11.00;99.90;;;;;;4965490;28;20516;-88
2023/01/13 00:19:32;;;;;;;1.23;0.97;;;11.00;99.90;;;;;;4980868;28;20443;-87
2023/01/13 00:22:01;;;;;;;1.83;0.90;;;11.00;99.90;;;;;;4965338;28;20487;-88
2023/01/13 00:24:27;;;;;;;1.43;1.00;;;11.00;99.90;;;;;;4996900;28;20440;-88
2023/01/13 00:26:54;;;;;;;1.57;1.03;;;11.00;99.90;;;;;;4981054;28;20523;-90
2023/01/13 00:29:22;;;;;;;2.53;1.17;;;11.00;99.90;;;;;;4964785;28;20560;-88
2023/01/13 00:31:49;;;;;;;1.47;1.00;;;11.00;99.90;;;;;;4980802;28;20489;-88
2023/01/13 00:34:15;;;;;;;1.40;1.10;;;11.00;99.90;;;;;;4997814;28;20441;-88
2023/01/13 00:36:43;;;;;;;1.20;0.90;;;11.00;99.90;;;;;;4961556;28;20431;-88
2023/01/13 00:39:12;;;;;;;1.23;0.90;;;11.00;99.90;;;;;;4977683;28;20478;-88
2023/01/13 00:44:23;;;;;;;3.47;1.00;;;11.00;99.90;;;;;;4979764;28;20427;-87
2023/01/13 00:46:49;;;;;;;2.53;1.10;;;11.00;99.90;;;;;;4980399;28;20472;-87
2023/01/13 00:49:14;;;;;;;1.93;1.10;;;11.00;99.90;;;;;;4995986;28;20417;-88
2023/01/13 00:51:40;;;;;;;3.37;1.07;;;11.00;99.90;;;;;;4977186;28;20921;-88
2023/01/13 00:54:06;;;;;;;2.50;1.13;;;11.00;99.90;;;;;;4961433;28;20544;-88
2023/01/13 00:56:32;;;;;;;1.73;1.10;;;11.00;99.90;;;;;;4980392;28;20542;-88
2023/01/13 00:58:58;;;;;;;2.43;1.30;;;11.00;99.90;;;;;;4980725;28;20484;-87
2023/01/13 01:01:24;;;;;;;3.37;1.10;;;10.90;99.90;;;;;;4977043;28;20422;-88
2023/01/13 01:03:52;;;;;;;4.30;1.43;;;11.00;99.90;;;;;;4960978;28;20520;-88
2023/01/13 01:06:22;;;;;;;2.33;1.23;;;11.00;99.90;;;;;;4960854;28;20556;-88
2023/01/13 01:08:49;;;;;;;2.57;1.20;;;11.00;99.90;;;;;;4944758;28;20938;-88
2023/01/13 01:11:21;;;;;;;1.70;1.07;;;10.90;99.90;;;;;;4977833;28;20422;-88
2023/01/13 01:13:48;;;;;;;5.83;1.10;;;10.90;99.90;;;;;;4976501;28;20816;-88
2023/01/13 01:16:16;;;;;;;3.67;1.30;;;10.90;99.90;;;;;;4960810;28;20442;-88
2023/01/13 01:18:44;;;;;;;4.13;1.17;;;11.00;99.90;;;;;;4975222;28;20466;-88
2023/01/13 01:21:11;;;;;;;3.87;1.30;;;10.90;99.90;;;;;;4963940;28;20449;-88
2023/01/13 01:23:40;;;;;;;3.87;1.10;;;10.90;99.90;;;;;;4996261;28;20495;-88
2023/01/13 01:26:09;;;;;;;2.90;1.10;;;11.00;99.90;;;;;;4976454;28;20465;-88
2023/01/13 01:28:35;;;;;;;9.87;1.80;;;10.90;99.90;;;;;;4944663;28;20445;-88
2023/01/13 01:31:09;;;;;;;2.87;1.10;;;10.90;99.90;;;;;;4971802;28;20445;-88
2023/01/13 01:33:35;;;;;;;5.10;1.97;;;10.90;99.90;;;;;;4963701;28;20531;-88
2023/01/13 01:36:02;;;;;;;3.63;1.60;;;10.90;99.90;;;;;;4960285;28;20438;-88
2023/01/13 01:38:28;;;;;;;6.97;1.50;;;10.90;99.90;;;;;;4960371;28;20465;-88
2023/01/13 01:40:54;;;;;;;8.50;1.40;;;10.90;99.90;;;;;;4976310;28;20430;-89
2023/01/13 01:43:58;;;;;;;8.17;1.70;;;10.90;99.90;;;;;;4976292;28;20516;-88
2023/01/13 01:46:26;;;;;;;3.03;1.57;;;10.90;99.90;;;;;;4976188;28;20454;-89
2023/01/13 01:48:54;;;;;;;9.17;1.97;;;10.90;99.90;;;;;;4960295;28;20435;-90
2023/01/13 01:51:20;;;;;;;9.63;1.80;;;10.90;99.90;;;;;;4960524;28;20425;-90
2023/01/13 01:53:50;;;;;;;3.27;1.40;;;10.90;99.90;;;;;;4976457;28;20454;-89
2023/01/13 01:56:20;;;;;;;8.00;2.20;;;10.90;99.90;;;;;;4975596;28;20545;-89
2023/01/13 01:58:49;;;;;;;6.00;1.83;;;10.90;99.90;;;;;;4943971;28;20436;-89
2023/01/13 02:01:16;;;;;;;5.50;1.40;;;10.90;99.90;;;;;;4989985;28;20439;-89
2023/01/13 02:03:54;;;;;;;6.60;1.60;;;10.90;99.90;;;;;;4994966;28;20441;-88
2023/01/13 02:06:20;;;;;;;5.23;2.00;;;10.90;99.90;;;;;;4979174;28;20460;-89
2023/01/13 02:08:46;;;;;;;5.43;1.87;;;10.80;99.90;;;;;;4962900;28;20503;-89
2023/01/13 02:14:18;;;;;;;10.50;1.97;;;10.80;99.90;;;;;;4974827;28;21138;-88
2023/01/13 02:17:08;;;;;;;4.10;1.63;;;10.80;99.90;;;;;;4963006;28;20512;-88
2023/01/13 02:20:13;;;;;;;5.13;1.73;;;10.80;99.90;;;;;;4979978;28;20942;-88
2023/01/13 02:23:00;;;;;;;5.93;1.80;;;10.80;99.90;;;;;;4978669;28;20437;-89
2023/01/13 02:25:58;;;;;;;8.33;1.57;;;10.80;99.90;;;;;;4978898;28;20982;-89
2023/01/13 02:28:24;;;;;;;7.40;1.60;;;10.80;99.90;;;;;;4987759;28;20467;-88
2023/01/13 02:34:08;;;;;;;4.87;1.83;;;10.80;99.90;;;;;;5015277;28;20288;-89
2023/01/13 02:36:48;;;;;;;5.77;1.43;;;10.80;99.90;;;;;;4998312;28;20449;-88
2023/01/13 02:39:44;;;;;;;3.33;1.10;;;10.80;99.90;;;;;;4959943;28;20428;-89
2023/01/13 02:45:42;;;;;;;4.47;1.90;;;10.80;99.90;;;;;;4959330;28;20437;-89
2023/01/13 02:48:12;;;;;;;5.17;1.33;;;10.70;99.90;;;;;;4975561;28;20409;-89
2023/01/13 02:50:43;;;;;;;6.43;1.17;;;10.70;99.90;;;;;;4963791;28;20762;-89
2023/01/13 02:53:21;;;;;;;4.13;1.50;;;10.70;99.90;;;;;;4995360;28;20926;-89
2023/01/13 02:55:51;;;;;;;4.23;1.00;;;10.70;99.90;;;;;;4978907;28;20812;-89
2023/01/13 02:58:21;;;;;;;4.23;1.30;;;10.70;99.90;;;;;;4962543;28;20937;-89
2023/01/13 03:00:48;;;;;;;2.60;1.03;;;10.70;99.90;;;;;;4994690;28;20764;-89
2023/01/13 03:03:14;;;;;;;4.77;1.90;;;10.70;99.90;;;;;;4962383;28;20440;-89
2023/01/13 03:05:43;;;;;;;3.30;1.20;;;10.70;99.90;;;;;;4962549;28;20783;-89
2023/01/13 03:08:09;;;;;;;5.50;1.50;;;10.70;99.90;;;;;;4996093;28;20429;-89
2023/01/13 03:10:46;;;;;;;5.30;1.80;;;10.70;99.90;;;;;;4967417;28;20434;-88
2023/01/13 03:13:51;;;;;;;5.73;1.00;;;10.70;99.90;;;;;;4993428;28;20471;-89
2023/01/13 03:16:45;;;;;;;7.63;2.07;;;10.60;99.90;;;;;;4982351;28;20436;-90
2023/01/13 03:19:52;;;;;;;5.77;1.73;;;10.60;99.90;;;;;;4960405;28;20462;-90
2023/01/13 03:22:41;;;;;;;4.30;1.50;;;10.60;99.90;;;;;;4957255;28;20429;-90
2023/01/13 03:25:21;;;;;;;4.83;1.73;;;10.60;99.90;;;;;;4962870;28;20465;-90
2023/01/13 03:27:51;;;;;;;2.40;1.20;;;10.60;99.90;;;;;;4947306;28;20430;-89
2023/01/13 03:30:21;;;;;;;4.87;1.67;;;10.60;99.90;;;;;;4955311;28;20421;-89
2023/01/13 03:33:00;;;;;;;5.90;1.40;;;10.60;99.90;;;;;;4982176;28;20436;-90
2023/01/13 03:35:39;;;;;;;7.13;1.67;;;10.60;99.90;;;;;;4982169;28;20428;-89
2023/01/13 03:38:10;;;;;;;7.40;1.80;;;10.60;99.90;;;;;;4998777;28;20460;-90
2023/01/13 03:40:46;;;;;;;4.70;1.20;;;10.60;99.90;;;;;;4981825;28;20429;-89
2023/01/13 03:46:16;;;;;;;6.60;2.07;;;10.60;99.90;;;;;;4998339;28;21002;-89
2023/01/13 03:48:45;;;;;;;5.07;1.40;;;10.50;99.90;;;;;;4997923;28;20489;-90
2023/01/13 03:51:17;;;;;;;3.77;1.20;;;10.50;99.90;;;;;;4998456;28;20535;-90
2023/01/13 03:53:51;;;;;;;3.20;1.30;;;10.50;99.90;;;;;;4965557;28;20417;-89
2023/01/13 03:56:34;;;;;;;6.47;1.43;;;10.50;99.90;;;;;;4981329;28;20463;-89
2023/01/13 03:59:03;;;;;;;6.57;1.77;;;10.50;99.90;;;;;;4979392;28;20403;-90
2023/01/13 04:01:53;;;;;;;3.33;1.40;;;10.50;99.90;;;;;;4946378;28;20751;-90
2023/01/13 04:04:25;;;;;;;3.20;1.20;;;10.50;99.90;;;;;;4997770;28;20491;-89
2023/01/13 04:07:27;;;;;;;1.80;0.90;;;10.50;99.90;;;;;;5016815;28;20452;-89
2023/01/13 04:09:57;;;;;;;8.90;1.60;;;10.50;99.90;;;;;;4984681;28;20491;-89
2023/01/13 04:13:10;;;;;;;4.30;1.40;;;10.50;99.90;;;;;;4984799;28;20756;-89
2023/01/13 04:15:52;;;;;;;2.70;1.00;;;10.50;99.90;;;;;;4976000;28;20464;-89
2023/01/13 04:18:24;;;;;;;7.30;2.00;;;10.40;99.90;;;;;;4981338;28;20897;-89
2023/01/13 04:20:55;;;;;;;3.70;1.90;;;10.40;99.90;;;;;;4961690;28;20441;-90
2023/01/13 04:23:24;;;;;;;4.33;1.30;;;10.40;99.90;;;;;;4978191;28;20433;-90
2023/01/13 04:25:50;;;;;;;7.90;1.40;;;10.40;99.90;;;;;;4961397;28;20540;-90
2023/01/13 04:28:17;;;;;;;4.93;1.33;;;10.40;99.90;;;;;;4945635;28;20777;-89
2023/01/13 04:30:44;;;;;;;4.37;1.37;;;10.40;99.90;;;;;;4961710;28;20434;-90
2023/01/13 04:33:10;;;;;;;6.63;1.50;;;10.40;99.90;;;;;;4949290;28;20430;-90
2023/01/13 04:35:37;;;;;;;5.70;1.93;;;10.40;99.90;;;;;;4961264;28;20441;-88
2023/01/13 04:38:15;;;;;;;5.63;1.83;;;10.40;99.90;;;;;;4978173;28;20786;-89
2023/01/13 04:40:41;;;;;;;4.90;2.57;;;10.40;99.90;;;;;;4977802;28;20923;-89
2023/01/13 04:43:08;;;;;;;3.90;1.60;;;10.40;99.90;;;;;;4976983;28;20430;-89
2023/01/13 04:45:34;;;;;;;10.07;1.90;;;10.40;99.90;;;;;;4977584;28;20474;-89
2023/01/13 04:48:03;;;;;;;4.10;1.40;;;10.40;99.90;;;;;;4977343;28;20535;-89
2023/01/13 04:50:29;;;;;;;4.80;1.50;;;10.40;99.90;;;;;;4945408;28;20431;-89
2023/01/13 04:52:59;;;;;;;6.33;1.97;;;10.40;99.90;;;;;;4976990;28;20419;-89
2023/01/13 04:55:26;;;;;;;4.87;1.70;;;10.40;99.90;;;;;;4972309;28;20444;-89
2023/01/13 04:58:04;;;;;;;8.53;1.80;;;10.40;99.90;;;;;;4964780;28;20425;-89
2023/01/13 05:00:30;;;;;;;7.00;2.03;;;10.40;99.90;;;;;;4964389;28;20909;-89
2023/01/13 05:02:57;;;;;;;4.30;1.50;;;10.40;99.90;;;;;;4980198;28;20535;-89
2023/01/13 05:09:18;;;;;;;10.60;2.17;;;10.40;99.90;;;;;;4996312;28;20414;-89
2023/01/13 05:17:19;;;;;;;5.13;1.90;;;10.30;99.90;;;;;;4995844;28;20806;-89
2023/01/13 05:19:45;;;;;;;11.37;2.73;;;10.30;99.90;;;;;;4963939;28;20445;-89
2023/01/13 05:27:40;;;;;;;5.07;2.03;;;10.30;99.90;;;;;;4976641;28;20438;-89
2023/01/13 05:30:07;;;;;;;7.43;1.63;;;10.30;99.90;;;;;;4944677;28;20439;-89
2023/01/13 05:32:33;;;;;;;6.93;1.60;;;10.30;99.90;;;;;;4959610;28;20450;-89
2023/01/13 05:34:59;;;;;;;5.03;1.40;;;10.30;99.90;;;;;;4960801;28;20440;-89
2023/01/13 05:37:30;;;;;;;5.97;1.83;;;10.30;99.90;;;;;;4944313;28;20505;-89
2023/01/13 05:45:25;;;;;;;11.90;2.43;;;10.30;99.90;;;;;;4979555;28;20424;-89
2023/01/13 05:47:51;;;;;;;7.90;1.43;;;10.20;99.90;;;;;;4979768;28;20448;-89
2023/01/13 05:50:18;;;;;;;3.00;1.93;;;10.20;99.90;;;;;;4995064;28;20491;-88
2023/01/13 05:52:44;;;;;;;5.00;1.77;;;10.20;99.90;;;;;;4996348;28;20390;-89
2023/01/13 05:55:10;;;;;;;7.93;2.07;;;10.30;99.90;;;;;;4995285;28;20524;-89
2023/01/13 05:57:36;;;;;;;6.30;1.90;;;10.30;99.90;;;;;;4996120;28;20833;-88
2023/01/13 06:00:03;;;;;;;12.20;4.47;;;10.20;99.90;;;;;;4995364;28;20467;-89
2023/01/13 06:02:37;;;;;;;10.03;2.23;;;10.30;99.90;;;;;;4999320;28;20459;-89
2023/01/13 06:05:06;;;;;;;10.90;2.40;;;10.20;99.90;;;;;;4989509;28;20572;-88
2023/01/13 06:07:32;;;;;;;9.70;2.00;;;10.20;99.90;;;;;;4995316;28;20999;-88
2023/01/13 06:09:58;;;;;;;7.93;2.13;;;10.20;99.90;;;;;;4963680;28;20516;-89
2023/01/13 06:12:24;;;;;;;8.60;1.93;;;10.20;99.90;;;;;;4995265;28;20517;-88
2023/01/13 06:14:50;;;;;;;8.47;1.87;;;10.20;99.90;;;;;;4995333;28;20465;-89
2023/01/13 06:17:16;;;;;;;6.73;1.57;;;10.20;99.90;;;;;;4963804;28;20753;-90
2023/01/13 06:19:42;;;;;;;6.57;1.97;;;10.20;99.90;;;;;;4976304;28;20895;-89
2023/01/13 06:22:16;;;;;;;8.53;1.90;;;10.20;99.90;;;;;;4959982;28;20458;-90
2023/01/13 06:24:45;;;;;;;4.13;1.60;;;10.20;99.90;;;;;;4960180;28;20414;-90
2023/01/13 06:27:11;;;;;;;5.90;2.03;;;10.20;99.90;;;;;;4963506;28;20476;-90
2023/01/13 06:29:37;;;;;;;8.33;1.60;;;10.20;99.90;;;;;;4963214;28;20486;-88
2023/01/13 06:32:15;;;;;;;6.07;2.07;;;10.20;99.90;;;;;;4975324;28;20437;-88
2023/01/13 06:34:46;;;;;;;7.67;2.10;;;10.20;99.90;;;;;;4978569;28;20539;-87
2023/01/13 06:37:18;;;;;;;5.63;1.67;;;10.20;99.90;;;;;;4994500;28;20755;-88
2023/01/13 06:39:45;;;;;;;9.33;2.30;;;10.20;99.90;;;;;;4987181;28;20417;-89
2023/01/13 06:44:58;;;;;;;7.00;1.90;;;10.20;99.90;;;;;;4994046;28;20427;-88
2023/01/13 06:47:24;;;;;;;6.63;2.60;;;10.10;99.90;;;;;;4982712;28;20476;-88
2023/01/13 06:49:58;;;;;;;6.47;1.60;;;10.10;99.90;;;;;;4967695;28;20432;-88
2023/01/13 06:52:29;;;;;;;3.87;1.40;;;10.20;99.90;;;;;;4967220;28;20743;-89
2023/01/13 06:54:58;;;;;;;8.60;2.03;;;10.10;99.90;;;;;;4983514;28;20432;-89
2023/01/13 06:57:24;;;;;;;10.10;2.00;;;10.10;99.90;;;;;;4960411;28;20434;-90
2023/01/13 06:59:50;;;;;;;6.40;1.83;;;10.10;99.90;;;;;;4966159;28;21061;-87
2023/01/13 07:02:16;;;;;;;6.53;1.60;;;10.10;99.90;;;;;;4979119;28;20512;-89
2023/01/13 07:04:45;;;;;;;7.30;1.67;;;10.10;99.90;;;;;;4979163;28;20438;-88
2023/01/13 07:07:15;;;;;;;4.30;1.60;;;10.10;99.90;;;;;;4962708;28;20950;-89
2023/01/13 07:09:44;;;;;;;7.00;1.57;;;10.10;99.90;;;;;;4947173;28;20512;-87
2023/01/13 07:12:19;;;;;;;7.13;1.90;;;10.10;99.90;;;;;;4951501;28;20458;-89
2023/01/13 07:17:52;;;;;;;6.50;2.27;;;10.10;99.90;;;;;;4978690;28;20492;-89
2023/01/13 07:20:21;;;;;;;7.27;2.10;;;10.10;99.90;;;;;;4947077;28;20422;-88
2023/01/13 07:22:53;;;;;;;6.73;2.23;;;10.00;99.90;;;;;;4962413;28;20433;-88
2023/01/13 07:25:19;;;;;;;5.40;1.57;;;10.00;99.90;;;;;;4978764;28;21057;-89
2023/01/13 07:27:48;;;;;;;9.07;2.00;;;10.10;99.90;;;;;;4978620;28;20500;-88
2023/01/13 07:30:14;;;;;;;5.40;1.60;;;10.00;99.90;;;;;;4979085;28;20457;-88
2023/01/13 07:32:40;;;;;;;6.20;2.20;;;10.00;99.90;;;;;;4979287;28;20767;-88
2023/01/13 07:35:06;;;;;;;8.63;2.27;;;10.00;99.90;;;;;;4965795;28;20437;-89
2023/01/13 07:37:37;;;;;;;9.63;2.00;;;10.00;99.90;;;;;;4966243;28;20456;-89
2023/01/13 07:40:04;;;;;;;5.83;1.80;;;10.00;99.90;;;;;;4965728;28;20526;-89
2023/01/13 07:45:19;;;;;;;7.20;2.10;;;10.00;99.90;;;;;;4978696;28;20416;-88
2023/01/13 07:47:45;;;;;;;8.30;1.63;;;10.00;99.90;;;;;;4946677;28;20517;-89
2023/01/13 07:50:11;;;;;;;4.77;1.90;;;10.00;99.90;;;;;;4965482;28;20488;-88
2023/01/13 07:52:37;;;;;;;4.40;1.73;;;10.00;99.90;;;;;;4997818;28;20886;-89
2023/01/13 07:55:05;;;;;;;11.90;2.03;;;10.00;99.90;;;;;;4997131;28;20429;-88
2023/01/13 07:57:36;;;;;;;8.10;2.00;;;10.00;99.90;;;;;;4957611;28;20470;-87
2023/01/13 08:00:03;;;;;;;4.67;2.00;;;10.00;99.90;;;;;;4963330;28;20489;-88
2023/01/13 08:02:31;;;;;;;8.23;1.80;;;9.90;99.90;;;;;;4988684;28;21303;-89
2023/01/13 08:04:56;;;;;;;6.50;2.20;;;10.00;99.90;;;;;;5000716;28;20448;-89
2023/01/13 08:07:22;;;;;;;7.30;2.10;;;10.00;99.90;;;;;;5002103;28;20478;-89
2023/01/13 08:09:49;;;;;;;6.50;1.97;;;9.90;99.90;;;;;;4985986;28;20432;-90
2023/01/13 08:14:59;;;;;;;10.63;2.60;;;9.90;99.90;;;;;;4997982;28;20452;-90
2023/01/13 08:17:31;;;;;;;7.50;1.57;;;9.90;99.90;;;;;;5002805;28;20403;-89
2023/01/13 08:20:01;;;;;;;5.93;2.07;;;9.90;99.90;;;;;;4988131;28;20818;-89
2023/01/13 08:22:29;;;;;;;6.10;1.90;;;9.90;99.90;;;;;;4981895;28;20420;-88
2023/01/13 08:24:56;;;;;;;11.17;2.30;;;9.90;99.90;;;;;;4966138;28;20521;-89
2023/01/13 08:27:22;;;;;;;10.80;1.90;;;9.90;99.90;;;;;;4992576;28;20477;-88
2023/01/13 08:29:51;;;;;;;8.50;1.77;;;9.90;99.90;;;;;;4946891;28;20434;-88
2023/01/13 08:32:17;;;;;;;6.30;2.27;;;9.90;99.90;;;;;;4960660;28;20437;-89
2023/01/13 08:34:45;;;;;;;9.30;2.10;;;9.90;99.90;;;;;;4951361;28;20453;-89
2023/01/13 08:37:11;;;;;;;5.60;2.00;;;9.90;99.90;;;;;;4984596;28;20446;-89
2023/01/13 08:39:37;;;;;;;6.40;2.40;;;9.90;99.90;;;;;;4972330;28;20580;-88
2023/01/13 08:42:04;;;;;;;7.60;2.23;;;9.90;99.90;;;;;;4996194;28;20405;-89
2023/01/13 08:44:31;;;;;;;8.60;2.00;;;9.90;99.90;;;;;;4998118;28;20432;-87
2023/01/13 08:47:01;;;;;;;6.33;1.50;;;9.90;99.90;;;;;;4981305;28;20484;-88
2023/01/13 08:49:27;;;;;;;5.10;1.80;;;9.90;99.90;;;;;;4948215;28;20476;-88
2023/01/13 08:51:53;;;;;;;5.67;2.17;;;9.90;99.90;;;;;;4971073;28;20843;-88
2023/01/13 08:54:23;;;;;;;9.77;2.53;;;9.90;99.90;;;;;;4979770;28;20425;-89
2023/01/13 08:56:49;;;;;;;7.67;2.27;;;9.90;99.90;;;;;;4979897;28;21157;-88
2023/01/13 08:59:17;;;;;;;7.20;2.70;;;9.90;99.90;;;;;;4963574;28;20552;-88
2023/01/13 09:01:44;;;;;;;7.43;2.73;;;9.90;99.90;;;;;;4995476;28;20453;-88
2023/01/13 09:04:18;;;;;;;7.87;2.00;;;9.90;99.90;;;;;;4946986;28;20444;-89
2023/01/13 09:06:45;;;;;;;8.53;2.60;;;9.90;99.90;;;;;;4963335;28;20467;-89
2023/01/13 09:09:12;;;;;;;5.37;2.10;;;9.90;99.90;;;;;;4979389;28;20952;-89
2023/01/13 09:14:31;;;;;;;7.73;2.50;;;9.90;99.90;;;;;;4962672;28;20920;-89
2023/01/13 09:16:58;;;;;;;14.13;3.17;;;9.90;99.90;;;;;;4963001;28;20449;-89
2023/01/13 09:19:25;;;;;;;11.67;2.90;;;9.90;99.90;;;;;;4975061;28;20450;-89
2023/01/13 09:21:51;;;;;;;6.33;2.50;;;9.90;99.90;;;;;;4974589;28;20520;-88
2023/01/13 09:24:18;;;;;;;8.53;2.10;;;9.90;99.90;;;;;;4996229;28;20755;-88
2023/01/13 09:26:44;;;;;;;5.90;2.10;;;9.90;99.90;;;;;;4960323;28;20976;-88
2023/01/13 09:29:13;;;;;;;9.07;2.27;;;9.90;99.90;;;;;;4979532;28;20517;-88
2023/01/13 09:31:39;;;;;;;5.33;1.70;;;9.90;99.90;;;;;;4960394;28;21107;-87
2023/01/13 09:36:51;;;;;;;7.43;2.30;;;9.90;99.90;;;;;;4976979;28;20496;-88
2023/01/13 09:39:21;;;;;;;8.77;2.30;;;9.90;99.90;;;;;;4976316;28;20475;-90
2023/01/13 09:44:38;;;;;;;12.40;2.60;;;9.90;99.90;;;;;;4979563;28;20428;-88
2023/01/13 09:47:10;;;;;;;6.77;3.37;;;9.80;99.90;;;;;;4995542;28;20478;-89
2023/01/13 09:49:41;;;;;;;9.60;2.80;;;9.90;99.90;;;;;;4976222;28;20430;-88
2023/01/13 09:52:31;;;;;;;10.33;2.93;;;9.90;99.90;;;;;;4984476;28;20666;-89
2023/01/13 09:55:12;;;;;;;9.47;4.30;;;9.90;99.90;;;;;;4999268;28;20444;-89
2023/01/13 09:57:38;;;;;;;6.57;2.20;;;9.90;99.90;;;;;;5005972;28;20417;-88
2023/01/13 10:00:26;;;;;;;10.90;2.93;;;9.90;99.90;;;;;;4995166;28;20764;-89
2023/01/13 10:03:06;;;;;;;6.10;2.17;;;9.80;99.90;;;;;;4987644;28;20489;-87
2023/01/13 10:05:39;;;;;;;13.60;3.00;;;9.90;99.90;;;;;;4963050;28;20537;-88
2023/01/13 10:08:14;;;;;;;10.43;3.27;;;9.90;99.90;;;;;;4975863;28;20537;-85
2023/01/13 10:10:50;;;;;;;11.57;2.60;;;9.90;99.90;;;;;;4975855;28;20414;-86
2023/01/13 10:13:29;;;;;;;13.77;3.47;;;9.90;99.90;;;;;;4986722;28;20591;-87
2023/01/13 10:16:04;;;;;;;16.40;2.63;;;9.90;99.90;;;;;;4962578;28;20905;-87
2023/01/13 10:18:59;;;;;;;16.33;3.70;;;9.90;99.90;;;;;;4962350;28;20441;-86
2023/01/13 10:21:37;;;;;;;8.50;2.97;;;9.90;99.90;;;;;;4985776;28;20439;-87
2023/01/13 10:24:14;;;;;;;21.60;3.27;;;9.90;99.90;;;;;;4978341;28;20424;-87
2023/01/13 10:27:17;;;;;;;13.97;3.53;;;9.90;99.90;;;;;;4978665;28;20488;-87
2023/01/13 10:29:43;;;;;;;7.43;1.67;;;9.90;99.90;;;;;;4958231;28;20458;-88
2023/01/13 10:32:09;;;;;;;14.47;3.50;;;9.90;99.90;;;;;;4959980;28;20849;-87
2023/01/13 10:34:56;;;;;;;8.20;2.70;;;9.90;99.90;;;;;;4978367;28;20421;-87
2023/01/13 10:37:28;;;;;;;17.17;2.83;;;9.90;99.90;;;;;;4994710;28;20484;-87
2023/01/13 10:39:59;;;;;;;11.20;2.80;;;9.90;99.90;;;;;;4962198;28;20483;-87
2023/01/13 10:42:25;;;;;;;12.83;2.80;;;9.90;99.90;;;;;;4978569;28;20440;-86
2023/01/13 10:44:54;;;;;;;8.57;2.37;;;10.00;99.90;;;;;;4978336;28;20429;-87
2023/01/13 10:47:34;;;;;;;9.87;2.57;;;10.00;99.90;;;;;;4994955;28;20783;-86
2023/01/13 10:50:23;;;;;;;12.70;3.00;;;10.00;99.90;;;;;;4978406;28;20426;-86
2023/01/13 10:53:02;;;;;;;10.30;2.70;;;10.00;99.90;;;;;;4978419;28;20506;-87
2023/01/13 10:55:36;;;;;;;14.63;2.90;;;10.00;99.90;;;;;;4978387;28;20424;-87
2023/01/13 10:58:21;;;;;;;13.43;2.73;;;10.00;99.90;;;;;;4977932;28;20820;-87
2023/01/13 11:00:48;;;;;;;9.10;3.17;;;10.00;99.90;;;;;;4978162;28;20778;-87
2023/01/13 11:03:19;;;;;;;10.90;3.13;;;10.00;99.90;;;;;;4958576;28;20458;-86
2023/01/13 11:05:59;;;;;;;9.80;2.80;;;10.00;99.90;;;;;;4976902;28;20434;-86
2023/01/13 11:08:40;;;;;;;10.73;2.50;;;10.00;99.90;;;;;;4985028;28;20437;-88
2023/01/13 11:11:26;;;;;;;9.20;2.40;;;10.10;99.90;;;;;;4958939;28;20445;-87
2023/01/13 11:16:44;;;;;;;10.20;2.67;;;10.00;99.90;;;;;;4975734;28;20473;-87
2023/01/13 11:19:15;;;;;;;13.27;3.30;;;10.10;99.90;;;;;;4991047;28;20510;-86
2023/01/13 11:21:54;;;;;;;12.00;3.17;;;10.00;99.90;;;;;;4975101;28;20483;-86
2023/01/13 11:24:28;;;;;;;11.03;3.30;;;10.00;99.90;;;;;;4977713;28;20445;-87
2023/01/13 11:27:24;;;;;;;7.70;2.53;;;10.00;99.90;;;;;;4977842;28;20460;-86
2023/01/13 11:30:17;;;;;;;11.43;2.87;;;10.00;99.90;;;;;;4978583;28;20464;-86
2023/01/13 11:33:09;;;;;;;6.80;2.83;;;10.00;99.90;;;;;;4965479;28;20882;-87
2023/01/13 11:40:08;;;;;;;8.40;2.57;;;10.00;99.90;;;;;;4996112;28;20520;-86
2023/01/13 11:42:48;;;;;;;13.17;3.33;;;10.00;99.90;;;;;;4997752;28;20432;-89
2023/01/13 11:45:28;;;;;;;16.30;2.90;;;10.00;99.90;;;;;;4999276;28;20405;-91
2023/01/13 11:47:59;;;;;;;10.00;3.10;;;10.00;99.90;;;;;;4966023;28;20520;-90
2023/01/13 11:50:27;;;;;;;11.33;2.30;;;10.00;99.90;;;;;;4982427;28;20416;-91
2023/01/13 11:53:14;;;;;;;9.90;2.50;;;10.10;99.90;;;;;;4966225;28;20427;-90
2023/01/13 11:56:03;;;;;;;11.13;2.97;;;10.10;99.90;;;;;;4961778;28;20469;-91
2023/01/13 11:58:29;;;;;;;5.77;2.33;;;10.10;99.90;;;;;;4970474;28;20529;-91
2023/01/13 12:01:19;;;;;;;12.70;2.73;;;10.10;99.90;;;;;;4999503;28;20460;-91
2023/01/13 12:04:08;;;;;;;10.20;2.67;;;10.10;99.90;;;;;;4989763;28;20249;-91
2023/01/13 12:06:37;;;;;;;10.10;2.63;;;10.10;99.90;;;;;;5003661;28;20477;-91
2023/01/13 12:09:10;;;;;;;9.80;2.80;;;10.10;99.90;;;;;;4965331;28;20460;-91
2023/01/13 12:12:19;;;;;;;12.73;2.80;;;10.00;99.90;;;;;;4964996;28;20767;-91
2023/01/13 12:15:01;;;;;;;17.83;2.87;;;10.00;99.90;;;;;;4961137;28;20511;-89
2023/01/13 12:17:41;;;;;;;8.33;3.03;;;10.00;99.90;;;;;;5014665;28;20427;-90
2023/01/13 12:20:47;;;;;;;16.17;3.10;;;10.00;99.90;;;;;;4970568;28;20440;-90
2023/01/13 12:23:25;;;;;;;10.93;2.80;;;10.00;99.90;;;;;;5004197;28;20437;-90
2023/01/13 12:26:00;;;;;;;11.23;3.03;;;10.00;99.90;;;;;;4997436;28;20473;-91
2023/01/13 12:28:32;;;;;;;17.37;2.67;;;10.00;99.90;;;;;;4993296;28;20438;-87
2023/01/13 12:31:02;;;;;;;8.30;2.83;;;10.00;99.90;;;;;;5001075;28;20423;-90
2023/01/13 12:33:33;;;;;;;11.70;3.60;;;10.00;99.90;;;;;;4994925;28;20929;-89
2023/01/13 12:36:17;;;;;;;11.27;2.90;;;10.00;99.90;;;;;;4961531;28;20454;-90
2023/01/13 12:39:34;;;;;;;11.93;3.00;;;9.90;99.90;;;;;;5007178;28;20416;-92
2023/01/13 12:45:09;;;;;;;10.87;2.27;;;9.90;99.90;;;;;;4988153;28;20452;-91
2023/01/13 12:47:40;;;;;;;5.73;2.40;;;9.90;99.90;;;;;;5009651;28;20470;-90
2023/01/13 12:50:21;;;;;;;7.33;2.63;;;9.90;99.90;;;;;;5016003;28;20734;-90
2023/01/13 12:52:49;;;;;;;8.97;2.10;;;9.90;99.90;;;;;;4987921;28;20439;-90
2023/01/13 12:55:26;;;;;;;12.40;3.30;;;9.90;99.90;;;;;;4996911;28;20448;-90
2023/01/13 12:58:14;;;;;;;8.37;3.03;;;9.90;99.90;;;;;;4981047;28;20436;-90
2023/01/13 13:00:40;;;;;;;13.43;2.70;;;9.90;99.90;;;;;;4996812;28;20398;-88
2023/01/13 13:03:12;;;;;;;8.30;2.10;;;9.90;99.90;;;;;;4980753;28;20492;-90
2023/01/13 13:06:16;;;;;;;5.87;2.43;;;9.80;99.90;;;;;;4961127;28;20426;-91
2023/01/13 13:08:48;;;;;;;5.80;2.33;;;9.90;99.90;;;;;;4972586;28;20468;-91
2023/01/13 13:13:16;;;;;;;18.17;3.83;;;9.80;99.90;;;;;;4978288;28;20437;-90
2023/01/13 13:14:05;;;;;;;8.43;2.60;;;9.80;99.90;;;;;;4980351;28;20523;-91
2023/01/13 13:16:36;;;;;;;13.10;2.67;;;9.80;99.90;;;;;;4997142;28;20480;-91
2023/01/13 13:19:17;;;;;;;9.93;2.70;;;9.80;99.90;;;;;;4989058;28;20426;-90
2023/01/13 13:22:06;;;;;;;12.53;3.27;;;9.80;99.90;;;;;;4971182;28;20487;-91
2023/01/13 13:24:32;;;;;;;10.23;2.57;;;9.80;99.90;;;;;;4976987;28;20454;-89
2023/01/13 13:27:16;;;;;;;13.97;2.80;;;9.80;99.90;;;;;;4992426;28;20453;-89
2023/01/13 13:30:12;;;;;;;13.50;3.03;;;9.80;99.90;;;;;;4996035;28;20491;-88
2023/01/13 13:32:54;;;;;;;21.47;3.83;;;9.80;99.90;;;;;;4995996;28;20414;-90
2023/01/13 13:35:50;;;;;;;8.57;2.43;;;9.80;99.90;;;;;;4979804;28;20441;-89
2023/01/13 13:47:17;;;;;;;6.63;2.60;;;9.80;99.90;;;;;;4974556;28;20837;-90
2023/01/13 13:49:49;;;;;;;12.23;2.73;;;9.80;99.90;;;;;;4979986;28;20417;-91
2023/01/13 13:52:39;;;;;;;7.53;2.50;;;9.80;99.90;;;;;;4979534;28;20745;-90
2023/01/13 13:55:14;;;;;;;11.03;2.93;;;9.80;99.90;;;;;;4976834;28;20418;-91
2023/01/13 13:57:45;;;;;;;14.80;2.83;;;9.80;99.90;;;;;;4976615;28;20763;-93
2023/01/13 14:00:15;;;;;;;11.70;2.73;;;9.80;99.90;;;;;;4995258;28;20518;-90
2023/01/13 14:02:49;;;;;;;11.23;2.67;;;9.80;99.90;;;;;;4995924;28;20722;-91
2023/01/13 14:05:20;;;;;;;8.37;2.87;;;9.80;99.90;;;;;;4963830;28;20448;-91
2023/01/13 14:07:50;;;;;;;14.20;3.00;;;9.80;99.90;;;;;;4963872;28;20574;-90
2023/01/13 14:10:24;;;;;;;12.23;2.90;;;9.80;99.90;;;;;;4980593;28;20420;-91
2023/01/13 14:12:51;;;;;;;7.60;2.57;;;9.80;99.90;;;;;;4996112;28;20437;-91
2023/01/13 14:15:32;;;;;;;5.70;2.27;;;9.80;99.90;;;;;;4963827;28;20900;-90
2023/01/13 14:18:05;;;;;;;7.83;2.27;;;9.80;99.90;;;;;;4979720;28;20515;-90
2023/01/13 14:20:33;;;;;;;11.10;3.63;;;9.80;99.90;;;;;;4957374;28;20439;-90
2023/01/13 14:23:00;;;;;;;9.07;2.23;;;9.80;99.90;;;;;;4976180;28;20452;-90
2023/01/13 14:25:30;;;;;;;7.90;2.63;;;9.80;99.90;;;;;;4968138;28;20981;-90
2023/01/13 14:28:27;;;;;;;7.87;2.73;;;9.80;99.90;;;;;;4981439;28;20432;-90
2023/01/13 14:30:54;;;;;;;9.50;2.83;;;9.80;99.90;;;;;;4983624;28;20459;-90
2023/01/13 14:33:42;;;;;;;12.93;3.00;;;9.80;99.90;;;;;;4991348;28;20425;-90